バグダッド の空港の天気 - METARとTAF

バグダッド国際空港 ( ORBI / BGW ) - イラク バグダード
飛行場実況気象(Metar)
観測時間09/27 01:00 AST (09/26 22:00 UTC)
風向・風速北西 4m/s
視程10km以上
天気現象
なし
気温28℃
湿度32%
気圧1005hPa
METARORBI 262200Z 31007KT CAVOK 28/10 Q1005 NOSIG
過去の天気等 Google飛行場航空写真 Wunderground天気予報

過去48時間のMETAR

飛行場予報(TAF)
発表時間: 9/26 19:00 AST (9/26 16:00 UTC)
予報対象時間: 26日21時 AST ~ 27日21時 AST
風向・風速北北西 4m/s
視程10km以上
なし
TAF ORBI 261600Z 2618/2718 33008KT CAVOK